createdAt,value
2022-09-05T00:00:02.857Z,100.00
2022-09-05T00:02:39.281Z,100.00
2022-09-05T00:05:41.303Z,100.00
2022-09-05T00:08:51.411Z,100.00
2022-09-05T00:11:41.126Z,100.00
2022-09-05T00:15:14.379Z,100.00
2022-09-05T00:18:09.514Z,100.00
2022-09-05T00:24:25.189Z,100.00
2022-09-05T00:24:27.844Z,100.00
2022-09-05T00:27:01.477Z,100.00
2022-09-05T00:31:05.440Z,100.00
2022-09-05T00:33:01.502Z,100.00
2022-09-05T00:35:49.563Z,100.00
2022-09-05T00:38:22.323Z,100.00
2022-09-05T00:40:57.026Z,100.00
2022-09-05T00:43:27.743Z,100.00
2022-09-05T00:46:16.586Z,100.00
2022-09-05T00:48:52.627Z,100.00
2022-09-05T00:51:36.333Z,100.00
2022-09-05T00:54:34.210Z,100.00
2022-09-05T00:57:38.936Z,100.00
2022-09-05T01:00:21.285Z,100.00
2022-09-05T01:03:31.370Z,100.00
2022-09-05T01:06:25.938Z,100.00
2022-09-05T01:09:07.618Z,100.00
2022-09-05T01:12:05.973Z,100.00
2022-09-05T01:14:51.340Z,100.00
2022-09-05T01:17:23.840Z,100.00
2022-09-05T01:20:19.535Z,100.00
2022-09-05T01:23:08.293Z,100.00
2022-09-05T01:25:55.375Z,100.00
2022-09-05T01:29:17.209Z,100.00
2022-09-05T01:31:50.242Z,100.00
2022-09-05T01:34:31.326Z,100.00
2022-09-05T01:37:02.576Z,100.00
2022-09-05T01:40:12.289Z,100.00
2022-09-05T01:42:49.787Z,100.00
2022-09-05T01:45:25.076Z,100.00
2022-09-05T01:48:16.789Z,100.00
2022-09-05T01:51:28.274Z,100.00
2022-09-05T01:54:25.722Z,100.00
2022-09-05T01:57:19.704Z,100.00
2022-09-05T01:59:56.199Z,100.00
2022-09-05T02:02:32.610Z,100.00
2022-09-05T02:05:12.322Z,100.00
2022-09-05T02:08:16.099Z,100.00
2022-09-05T02:11:07.850Z,100.00
2022-09-05T02:13:34.354Z,100.00
2022-09-05T02:16:07.006Z,100.00
2022-09-05T02:19:08.976Z,100.00
2022-09-05T02:21:57.265Z,100.00
2022-09-05T02:24:34.599Z,100.00
2022-09-05T02:27:37.408Z,100.00
2022-09-05T02:30:09.581Z,100.00
2022-09-05T02:32:36.061Z,100.00
2022-09-05T02:35:22.760Z,100.00
2022-09-05T02:39:09.206Z,100.00
2022-09-05T02:45:05.997Z,100.00
2022-09-05T02:45:20.117Z,100.00
2022-09-05T02:47:22.556Z,100.00
2022-09-05T02:53:35.102Z,100.00
2022-09-05T02:57:24.796Z,100.00
2022-09-05T02:57:34.403Z,100.00
2022-09-05T02:59:09.090Z,100.00
2022-09-05T03:02:24.996Z,100.00
2022-09-05T03:05:08.472Z,100.00
2022-09-05T03:07:47.002Z,100.00
2022-09-05T03:10:53.564Z,100.00
2022-09-05T03:13:48.758Z,100.00
2022-09-05T03:16:51.887Z,100.00
2022-09-05T03:19:46.219Z,100.00
2022-09-05T03:22:37.761Z,100.00
2022-09-05T03:25:13.334Z,100.00
2022-09-05T03:28:17.424Z,100.00
2022-09-05T03:31:22.711Z,100.00
2022-09-05T03:34:14.702Z,100.00
2022-09-05T03:37:26.706Z,100.00
2022-09-05T03:40:16.151Z,100.00
2022-09-05T03:43:02.046Z,100.00
2022-09-05T03:45:37.246Z,100.00
2022-09-05T03:48:23.131Z,100.00
2022-09-05T03:57:06.748Z,100.00
2022-09-05T03:57:10.815Z,100.00
2022-09-05T03:57:38.573Z,100.00
2022-09-05T04:00:11.405Z,100.00
2022-09-05T04:08:07.090Z,100.00
2022-09-05T04:08:31.819Z,100.00
2022-09-05T04:08:54.187Z,100.00
2022-09-05T04:11:31.831Z,100.00
2022-09-05T04:14:02.750Z,100.00
2022-09-05T04:16:41.527Z,100.00
2022-09-05T04:19:28.915Z,100.00
2022-09-05T04:22:21.998Z,100.00
2022-09-05T04:25:45.548Z,100.00
2022-09-05T04:28:18.406Z,100.00
2022-09-05T04:30:52.724Z,100.00
2022-09-05T04:33:54.656Z,100.00
2022-09-05T04:36:25.767Z,100.00
2022-09-05T04:39:19.783Z,100.00
2022-09-05T04:42:02.853Z,100.00
2022-09-05T04:44:45.748Z,100.00
2022-09-05T04:47:43.499Z,100.00
2022-09-05T04:50:15.625Z,100.00
2022-09-05T04:53:27.334Z,100.00
2022-09-05T04:55:57.862Z,100.00
2022-09-05T04:58:42.072Z,100.00
2022-09-05T05:06:05.462Z,100.00
2022-09-05T05:06:13.726Z,100.00
2022-09-05T05:07:18.069Z,100.00
2022-09-05T05:10:25.543Z,100.00
2022-09-05T05:17:57.935Z,100.00
2022-09-05T05:18:07.221Z,100.00
2022-09-05T05:19:43.009Z,100.00
2022-09-05T05:22:17.098Z,100.00
2022-09-05T05:24:47.523Z,100.00
2022-09-05T05:27:27.915Z,100.00
2022-09-05T05:30:02.002Z,100.00
2022-09-05T05:32:45.456Z,100.00
2022-09-05T05:35:16.295Z,100.00
2022-09-05T05:37:55.232Z,100.00
2022-09-05T05:40:26.776Z,100.00
2022-09-05T05:43:16.495Z,100.00
2022-09-05T05:45:43.210Z,100.00
2022-09-05T05:48:19.047Z,100.00
2022-09-05T05:50:52.687Z,100.00
2022-09-05T05:53:43.635Z,100.00
2022-09-05T05:56:14.399Z,100.00
2022-09-05T05:59:22.645Z,100.00
2022-09-05T06:02:15.815Z,100.00
2022-09-05T06:05:03.728Z,100.00
2022-09-05T06:09:12.757Z,100.00
2022-09-05T06:14:51.476Z,100.00
2022-09-05T06:15:01.180Z,100.00
2022-09-05T06:16:39.872Z,100.00
2022-09-05T06:22:05.474Z,100.00
2022-09-05T06:22:46.437Z,100.00
2022-09-05T06:25:35.319Z,100.00
2022-09-05T06:28:19.677Z,100.00
2022-09-05T06:31:21.131Z,100.00
2022-09-05T06:33:57.519Z,100.00
2022-09-05T06:36:45.786Z,100.00
2022-09-05T06:39:37.452Z,100.00
2022-09-05T06:42:30.564Z,100.00
2022-09-05T06:45:29.735Z,100.00
2022-09-05T06:48:04.320Z,100.00
2022-09-05T06:51:07.805Z,100.00
2022-09-05T06:54:01.035Z,100.00
2022-09-05T06:56:40.091Z,100.00
2022-09-05T06:59:25.357Z,100.00
2022-09-05T07:02:08.667Z,100.00
2022-09-05T07:05:24.508Z,100.00
2022-09-05T07:07:36.810Z,100.00
2022-09-05T07:10:28.196Z,100.00
2022-09-05T07:13:15.183Z,100.00
2022-09-05T07:16:10.772Z,100.00
2022-09-05T07:18:43.685Z,100.00
2022-09-05T07:21:26.646Z,100.00
2022-09-05T07:24:09.435Z,100.00
2022-09-05T07:26:53.869Z,100.00
2022-09-05T07:29:30.121Z,100.00
2022-09-05T07:31:59.525Z,100.00
2022-09-05T07:34:30.027Z,100.00
2022-09-05T07:37:14.316Z,100.00
2022-09-05T07:39:54.778Z,100.00
2022-09-05T07:42:27.002Z,100.00
2022-09-05T07:45:00.391Z,100.00
2022-09-05T07:47:28.476Z,100.00
2022-09-05T07:50:41.529Z,100.00
2022-09-05T07:56:49.702Z,100.00
2022-09-05T07:57:06.273Z,100.00
2022-09-05T07:58:22.053Z,100.00
2022-09-05T08:00:53.539Z,100.00
2022-09-05T08:03:26.208Z,100.00
2022-09-05T08:05:58.040Z,100.00
2022-09-05T08:08:28.994Z,100.00
2022-09-05T08:11:24.843Z,100.00
2022-09-05T08:14:10.480Z,100.00
2022-09-05T08:16:43.197Z,100.00
2022-09-05T08:19:25.132Z,100.00
2022-09-05T08:21:52.891Z,100.00
2022-09-05T08:24:28.754Z,100.00
2022-09-05T08:27:05.268Z,100.00
2022-09-05T08:29:40.020Z,100.00
2022-09-05T08:32:09.336Z,87.87
2022-09-05T08:34:47.726Z,84.08
2022-09-05T08:37:21.965Z,83.54
2022-09-05T08:39:54.246Z,78.38
2022-09-05T08:45:56.536Z,76.20
2022-09-05T08:46:41.200Z,76.85
2022-09-05T08:49:37.593Z,71.84
2022-09-05T08:52:26.260Z,70.14
2022-09-05T08:55:20.840Z,71.67
2022-09-05T08:58:00.175Z,66.86
2022-09-05T09:00:31.425Z,63.54
2022-09-05T09:03:13.591Z,62.81
2022-09-05T09:06:12.517Z,59.69
2022-09-05T09:09:05.148Z,58.69
2022-09-05T09:11:38.975Z,57.48
2022-09-05T09:14:31.844Z,57.07
2022-09-05T09:17:07.214Z,56.92
2022-09-05T09:19:46.467Z,53.66
2022-09-05T09:22:28.111Z,54.11
2022-09-05T09:25:18.405Z,53.85
2022-09-05T09:28:48.275Z,52.78
2022-09-05T09:31:22.239Z,50.12
2022-09-05T09:33:57.830Z,48.20
2022-09-05T09:36:51.742Z,40.60
2022-09-05T09:39:37.173Z,37.93
2022-09-05T09:42:33.795Z,37.78
2022-09-05T09:45:26.157Z,38.44
2022-09-05T09:48:10.819Z,36.77
2022-09-05T09:51:00.709Z,34.22
2022-09-05T09:53:37.718Z,32.47
2022-09-05T09:56:22.602Z,32.10
2022-09-05T09:58:55.080Z,29.68
2022-09-05T10:01:51.991Z,28.48
2022-09-05T10:10:36.188Z,27.01
2022-09-05T10:10:46.527Z,26.60
2022-09-05T10:10:52.716Z,28.71
2022-09-05T10:13:18.133Z,24.55
2022-09-05T10:16:24.458Z,24.61
2022-09-05T10:19:05.173Z,25.87
2022-09-05T10:21:43.042Z,24.98
2022-09-05T10:24:24.830Z,25.15
2022-09-05T10:27:13.878Z,25.88
2022-09-05T10:29:46.600Z,25.02
2022-09-05T10:35:06.957Z,25.97
2022-09-05T10:35:42.701Z,28.87
2022-09-05T10:38:18.565Z,30.09
2022-09-05T10:41:20.074Z,31.67
2022-09-05T10:43:39.373Z,29.40
2022-09-05T10:46:49.606Z,28.92
2022-09-05T10:49:16.551Z,29.29
2022-09-05T10:51:51.832Z,28.98
2022-09-05T10:54:43.193Z,24.68
2022-09-05T10:57:39.236Z,20.86
2022-09-05T11:02:20.740Z,19.91
2022-09-05T11:03:41.406Z,18.79
2022-09-05T11:06:13.429Z,18.41
2022-09-05T11:08:45.316Z,20.03
2022-09-05T11:11:30.880Z,20.44
2022-09-05T11:14:04.247Z,20.51
2022-09-05T11:16:37.371Z,22.67
2022-09-05T11:19:20.555Z,23.97
2022-09-05T11:22:23.088Z,24.34
2022-09-05T11:24:58.023Z,24.77
2022-09-05T11:27:32.370Z,25.15
2022-09-05T11:30:06.769Z,23.37
2022-09-05T11:36:56.801Z,21.74
2022-09-05T11:39:53.713Z,22.87
2022-09-05T11:39:59.728Z,22.85
2022-09-05T11:41:45.828Z,21.91
2022-09-05T11:44:29.872Z,21.09
2022-09-05T11:47:28.020Z,18.85
2022-09-05T11:50:15.219Z,17.61
2022-09-05T11:53:03.913Z,17.69
2022-09-05T11:55:36.344Z,17.18
2022-09-05T11:58:43.269Z,17.06
2022-09-05T12:01:43.106Z,15.64
2022-09-05T12:04:20.597Z,15.11
2022-09-05T12:07:03.165Z,15.65
2022-09-05T12:09:53.441Z,16.96
2022-09-05T12:12:41.585Z,17.48
2022-09-05T12:15:25.182Z,19.39
2022-09-05T12:18:30.807Z,21.71
2022-09-05T12:21:19.776Z,22.13
2022-09-05T12:24:11.615Z,23.42
2022-09-05T12:27:43.207Z,25.09
2022-09-05T12:29:39.895Z,25.79
2022-09-05T12:40:40.362Z,21.82
2022-09-05T12:41:42.041Z,26.45
2022-09-05T12:41:42.270Z,26.25
2022-09-05T12:42:14.565Z,17.25
2022-09-05T12:44:55.310Z,15.39
2022-09-05T12:47:24.015Z,15.06
2022-09-05T12:50:14.351Z,12.93
2022-09-05T12:52:44.755Z,11.46
2022-09-05T12:55:17.375Z,12.74
2022-09-05T13:02:56.590Z,12.41
2022-09-05T13:03:01.186Z,12.85
2022-09-05T13:03:32.070Z,13.96
2022-09-05T13:06:09.556Z,12.33
2022-09-05T13:08:59.481Z,14.39
2022-09-05T13:14:47.524Z,15.29
2022-09-05T13:14:57.343Z,19.13
2022-09-05T13:17:10.516Z,20.69
2022-09-05T13:19:45.732Z,22.97
2022-09-05T13:22:14.946Z,24.22
2022-09-05T13:24:46.630Z,23.25
2022-09-05T13:27:25.027Z,24.48
2022-09-05T13:31:44.063Z,25.52
2022-09-05T13:38:01.344Z,25.78
2022-09-05T13:38:11.856Z,26.59
2022-09-05T13:39:28.441Z,27.46
2022-09-05T13:41:59.587Z,27.95
2022-09-05T13:44:28.229Z,28.18
2022-09-05T13:47:28.843Z,29.16
2022-09-05T13:50:05.194Z,29.24
2022-09-05T13:52:35.730Z,29.66
2022-09-05T13:55:02.186Z,28.77
2022-09-05T13:57:45.400Z,28.95
2022-09-05T14:00:26.720Z,29.70
2022-09-05T14:03:38.042Z,28.69
2022-09-05T14:10:08.255Z,30.17
2022-09-05T14:12:50.073Z,29.43
2022-09-05T14:15:26.328Z,29.16
2022-09-05T14:18:01.260Z,29.79
2022-09-05T14:20:50.578Z,30.02
2022-09-05T14:23:18.271Z,30.54
2022-09-05T14:25:53.355Z,30.71
2022-09-05T14:28:46.664Z,30.92
2022-09-05T14:35:51.538Z,30.50
2022-09-05T14:37:51.596Z,29.78
2022-09-05T14:37:52.622Z,30.00
2022-09-05T14:40:39.158Z,30.21
2022-09-05T14:43:30.858Z,29.68
2022-09-05T14:46:42.593Z,30.43
2022-09-05T14:49:40.609Z,31.14
2022-09-05T14:52:35.508Z,31.48
2022-09-05T14:55:20.046Z,31.54
2022-09-05T15:02:49.948Z,30.73
2022-09-05T15:03:00.158Z,30.79
2022-09-05T15:06:33.037Z,31.42
2022-09-05T15:11:25.605Z,31.26
2022-09-05T15:12:24.094Z,30.82
2022-09-05T15:14:36.400Z,30.30
2022-09-05T15:17:05.154Z,30.77
2022-09-05T15:19:54.824Z,31.50
2022-09-05T15:22:35.330Z,30.73
2022-09-05T15:25:18.382Z,30.50
2022-09-05T15:27:46.312Z,30.07
2022-09-05T15:30:18.772Z,29.11
2022-09-05T15:32:50.200Z,29.42
2022-09-05T15:35:36.643Z,30.25
2022-09-05T15:38:54.276Z,29.50
2022-09-05T15:41:27.631Z,29.52
2022-09-05T15:43:59.703Z,28.97
2022-09-05T15:46:49.412Z,29.26
2022-09-05T15:49:28.785Z,29.35
2022-09-05T15:51:57.587Z,29.68
2022-09-05T15:54:38.621Z,30.04
2022-09-05T15:57:15.240Z,30.74
2022-09-05T15:59:49.375Z,31.25
2022-09-05T16:02:20.264Z,31.70
2022-09-05T16:08:34.152Z,31.16
2022-09-05T16:10:35.759Z,31.24
2022-09-05T16:11:06.096Z,31.58
2022-09-05T16:13:21.663Z,31.53
2022-09-05T16:23:13.278Z,32.43
2022-09-05T16:23:27.780Z,33.22
2022-09-05T16:23:31.195Z,33.79
2022-09-05T16:24:59.305Z,32.87
2022-09-05T16:27:53.386Z,32.79
2022-09-05T16:30:24.730Z,33.33
2022-09-05T16:32:56.143Z,33.17
2022-09-05T16:35:26.526Z,33.74
2022-09-05T16:38:13.311Z,33.25
2022-09-05T16:40:50.029Z,34.12
2022-09-05T16:43:28.487Z,34.56
2022-09-05T16:46:20.833Z,35.31
2022-09-05T16:49:12.594Z,34.80
2022-09-05T16:51:51.171Z,35.53
2022-09-05T16:54:36.052Z,36.07
2022-09-05T16:57:07.518Z,35.69
2022-09-05T16:59:35.991Z,35.93
2022-09-05T17:02:08.586Z,36.02
2022-09-05T17:05:02.934Z,36.69
2022-09-05T17:07:54.939Z,36.93
2022-09-05T17:10:25.667Z,37.58
2022-09-05T17:12:56.208Z,38.40
2022-09-05T17:15:35.118Z,38.55
2022-09-05T17:18:20.876Z,38.74
2022-09-05T17:20:54.290Z,39.01
2022-09-05T17:28:01.131Z,40.87
2022-09-05T17:29:24.242Z,40.67
2022-09-05T17:29:38.424Z,40.88
2022-09-05T17:32:00.334Z,41.52
2022-09-05T17:34:30.443Z,41.33
2022-09-05T17:37:11.780Z,41.98
2022-09-05T17:39:58.116Z,42.39
2022-09-05T17:42:43.012Z,43.17
2022-09-05T17:45:17.240Z,42.93
2022-09-05T17:47:49.720Z,43.84
2022-09-05T17:50:37.945Z,44.06
2022-09-05T17:53:26.090Z,43.85
2022-09-05T17:55:54.975Z,44.74
2022-09-05T17:58:33.349Z,45.18
2022-09-05T18:01:19.843Z,45.72
2022-09-05T18:03:49.468Z,46.19
2022-09-05T18:06:16.216Z,46.24
2022-09-05T18:08:45.509Z,46.11
2022-09-05T18:11:26.094Z,47.15
2022-09-05T18:14:02.791Z,47.49
2022-09-05T18:17:36.880Z,48.21
2022-09-05T18:19:32.518Z,49.07
2022-09-05T18:22:11.996Z,49.55
2022-09-05T18:28:05.232Z,50.53
2022-09-05T18:33:53.611Z,50.70
2022-09-05T18:35:54.675Z,51.23
2022-09-05T18:38:29.567Z,51.68
2022-09-05T18:41:21.714Z,52.25
2022-09-05T18:44:02.222Z,52.49
2022-09-05T18:46:46.867Z,52.98
2022-09-05T18:50:21.794Z,52.89
2022-09-05T18:52:33.912Z,53.35
2022-09-05T18:56:09.254Z,53.57
2022-09-05T18:57:57.895Z,53.89
2022-09-05T19:00:44.280Z,54.24
2022-09-05T19:03:20.241Z,54.00
2022-09-05T19:06:36.412Z,54.54
2022-09-05T19:08:59.588Z,53.96
2022-09-05T19:11:34.845Z,53.67
2022-09-05T19:14:28.929Z,53.03
2022-09-05T19:17:16.694Z,52.46
2022-09-05T19:20:30.593Z,51.74
2022-09-05T19:23:10.185Z,52.91
2022-09-05T19:25:42.974Z,55.05
2022-09-05T19:36:58.723Z,55.05
2022-09-05T19:37:02.707Z,53.53
2022-09-05T19:37:09.974Z,54.34
2022-09-05T19:37:29.301Z,53.72
2022-09-05T19:41:27.099Z,54.51
2022-09-05T19:47:30.456Z,54.61
2022-09-05T19:47:37.378Z,55.24
2022-09-05T19:48:26.248Z,55.84
2022-09-05T19:50:57.805Z,55.76
2022-09-05T19:53:24.918Z,55.30
2022-09-05T19:55:52.361Z,55.52
2022-09-05T19:58:21.374Z,55.81
2022-09-05T20:01:01.472Z,55.79
2022-09-05T20:03:28.694Z,55.64
2022-09-05T20:06:04.932Z,55.71
2022-09-05T20:08:35.718Z,55.82
2022-09-05T20:11:06.776Z,56.06
2022-09-05T20:13:33.380Z,55.97
2022-09-05T20:16:01.985Z,55.85
2022-09-05T20:18:40.179Z,57.53
2022-09-05T20:21:30.141Z,58.10
2022-09-05T20:23:58.638Z,58.51
2022-09-05T20:26:28.575Z,58.78
2022-09-05T20:29:01.484Z,58.34
2022-09-05T20:31:33.087Z,57.99
2022-09-05T20:34:55.215Z,58.10
2022-09-05T20:43:16.719Z,59.06
2022-09-05T20:43:16.800Z,59.86
2022-09-05T20:43:24.005Z,60.23
2022-09-05T20:46:24.321Z,60.85
2022-09-05T20:54:04.526Z,60.95
2022-09-05T20:54:14.294Z,61.76
2022-09-05T20:54:34.791Z,62.24
2022-09-05T20:57:12.804Z,63.22
2022-09-05T20:59:44.321Z,64.84
2022-09-05T21:02:23.361Z,64.50
2022-09-05T21:05:06.620Z,64.29
2022-09-05T21:07:51.232Z,64.38
2022-09-05T21:10:33.402Z,64.55
2022-09-05T21:13:52.113Z,65.05
2022-09-05T21:16:21.964Z,66.13
2022-09-05T21:18:49.208Z,67.46
2022-09-05T21:21:30.219Z,68.01
2022-09-05T21:24:16.780Z,68.68
2022-09-05T21:26:45.312Z,69.51
2022-09-05T21:29:11.847Z,69.31
2022-09-05T21:31:43.850Z,70.39
2022-09-05T21:34:31.050Z,70.37
2022-09-05T21:37:07.713Z,70.99
2022-09-05T21:39:44.813Z,71.74
2022-09-05T21:43:02.547Z,72.31
2022-09-05T21:47:49.491Z,72.13
2022-09-05T21:47:58.242Z,73.43
2022-09-05T21:50:30.752Z,73.90
2022-09-05T21:53:45.267Z,75.44
2022-09-05T21:59:17.483Z,76.57
2022-09-05T21:59:29.613Z,77.50
2022-09-05T22:01:20.508Z,81.38
2022-09-05T22:04:07.458Z,82.80
2022-09-05T22:06:33.987Z,81.22
2022-09-05T22:09:13.646Z,81.66
2022-09-05T22:11:41.244Z,81.17
2022-09-05T22:14:09.087Z,81.14
2022-09-05T22:16:38.430Z,80.89
2022-09-05T22:19:12.238Z,80.50
2022-09-05T22:21:39.154Z,82.12
2022-09-05T22:24:08.934Z,81.99
2022-09-05T22:27:10.934Z,81.95
2022-09-05T22:29:34.496Z,84.71
2022-09-05T22:32:01.307Z,87.72
2022-09-05T22:34:30.884Z,88.40
2022-09-05T22:36:57.584Z,89.41
2022-09-05T22:39:37.529Z,89.14
2022-09-05T22:42:10.159Z,90.40
2022-09-05T22:44:39.083Z,91.76
2022-09-05T22:47:09.594Z,93.05
2022-09-05T22:49:36.706Z,94.01
2022-09-05T22:52:07.922Z,94.26
2022-09-05T22:54:35.771Z,98.82
2022-09-05T22:57:03.634Z,99.42
2022-09-05T22:59:30.233Z,99.28
2022-09-05T23:01:56.840Z,100.00
2022-09-05T23:04:23.873Z,100.00
2022-09-05T23:06:50.487Z,100.00
2022-09-05T23:09:17.077Z,100.00
2022-09-05T23:11:43.613Z,100.00
2022-09-05T23:14:10.156Z,100.00
2022-09-05T23:16:36.731Z,100.00
2022-09-05T23:19:03.355Z,100.00
2022-09-05T23:21:29.922Z,99.94
2022-09-05T23:23:56.487Z,98.95
2022-09-05T23:26:23.239Z,97.67
2022-09-05T23:28:50.117Z,97.62
2022-09-05T23:31:16.811Z,97.37
2022-09-05T23:33:43.419Z,94.74
2022-09-05T23:36:13.587Z,93.79
2022-09-05T23:38:43.626Z,93.87
2022-09-05T23:41:13.035Z,94.27
2022-09-05T23:43:39.646Z,94.72
2022-09-05T23:46:06.795Z,92.39
2022-09-05T23:48:33.620Z,90.50
2022-09-05T23:51:07.960Z,89.31
2022-09-05T23:53:34.901Z,92.48
2022-09-05T23:56:02.694Z,95.58
2022-09-05T23:58:30.084Z,100.00
